Time;durP1;ratioP1;P1;durP2;ratioP2;P2;SDS_P1;SDS_P2;PMS_P1;PMS_P2;Temp;Humidity;BMP_temperature;BMP_pressure;BME280_temperature;BME280_humidity;BME280_pressure;Samples;Min_cycle;Max_cycle;Signal;HPM_P1;HPM_P2
2021/12/29 00:01:01;;;;;;;25.88;7.25;;;;;;;8.49;100.00;99947.28;5074436;28;20085;-46
2021/12/29 00:03:27;;;;;;;23.67;6.60;;;;;;;8.25;100.00;99920.19;5074360;28;20047;-48
2021/12/29 00:05:52;;;;;;;27.50;6.95;;;;;;;8.30;100.00;99933.16;5056592;28;20392;-49
2021/12/29 00:08:17;;;;;;;28.75;8.05;;;;;;;8.57;100.00;99983.72;5056055;28;20060;-49
2021/12/29 00:10:43;;;;;;;24.73;7.40;;;;;;;8.25;100.00;99930.69;5074201;28;20487;-50
2021/12/29 00:13:08;;;;;;;26.77;6.95;;;;;;;8.51;100.00;99989.19;5074277;28;20032;-49
2021/12/29 00:15:34;;;;;;;24.50;6.95;;;;;;;8.18;100.00;99916.06;5056392;28;20119;-50
2021/12/29 00:18:00;;;;;;;21.00;6.32;;;;;;;8.55;100.00;99977.69;5074289;28;20043;-49
2021/12/29 00:20:29;;;;;;;26.42;6.80;;;;;;;8.58;100.00;100015.13;5056624;28;20037;-54
2021/12/29 00:22:56;;;;;;;21.77;6.28;;;;;;;8.61;100.00;100011.56;5056567;28;20025;-47
2021/12/29 00:25:21;;;;;;;26.23;7.45;;;;;;;8.58;100.00;100025.59;5074283;28;20124;-50
2021/12/29 00:27:47;;;;;;;24.80;7.57;;;;;;;8.60;100.00;100023.81;5073965;28;20094;-52
2021/12/29 00:30:13;;;;;;;28.75;7.20;;;;;;;8.61;100.00;100014.19;5073808;28;20062;-47
2021/12/29 00:32:38;;;;;;;25.10;6.20;;;;;;;8.20;100.00;99950.13;5074260;28;20058;-51
2021/12/29 00:35:05;;;;;;;21.63;6.03;;;;;;;8.25;100.00;99956.03;5056238;28;20036;-50
2021/12/29 00:37:31;;;;;;;19.65;5.80;;;;;;;8.48;100.00;100003.28;5055767;28;20032;-50
2021/12/29 00:39:56;;;;;;;23.52;6.03;;;;;;;8.59;100.00;100024.72;5072471;28;20040;-51
2021/12/29 00:42:21;;;;;;;22.00;5.93;;;;;;;8.27;100.00;99972.56;5073420;28;20044;-50
2021/12/29 00:44:47;;;;;;;22.95;6.10;;;;;;;8.57;100.00;100036.19;5073441;28;20391;-48
2021/12/29 00:47:13;;;;;;;23.70;5.13;;;;;;;8.53;100.00;100024.06;5038902;28;20056;-48
2021/12/29 00:49:40;;;;;;;23.05;5.88;;;;;;;8.17;100.00;99958.09;5074000;28;20082;-48
2021/12/29 00:52:07;;;;;;;20.70;6.10;;;;;;;8.55;100.00;100028.38;5055571;28;20038;-50
2021/12/29 00:54:34;;;;;;;15.20;5.10;;;;;;;8.53;100.00;100038.03;5073606;28;20028;-52
2021/12/29 00:57:00;;;;;;;18.35;4.75;;;;;;;8.21;100.00;99989.38;5055835;28;20036;-51
2021/12/29 00:59:26;;;;;;;19.80;5.38;;;;;;;8.23;100.00;100005.06;5073345;28;20038;-49
2021/12/29 01:01:52;;;;;;;16.08;4.55;;;;;;;8.51;100.00;100062.63;5055305;28;20403;-51
2021/12/29 01:04:18;;;;;;;13.35;4.00;;;;;;;8.48;100.00;100059.22;5055719;28;20037;-51
2021/12/29 01:06:44;;;;;;;11.02;4.00;;;;;;;8.57;100.00;100078.16;5055597;28;20040;-50
2021/12/29 01:09:09;;;;;;;17.13;5.28;;;;;;;8.47;100.00;100078.47;5055468;28;20037;-50
2021/12/29 01:11:35;;;;;;;14.18;4.45;;;;;;;8.20;100.00;100039.25;5073354;28;20044;-51
2021/12/29 01:14:00;;;;;;;21.00;5.28;;;;;;;8.51;100.00;100092.34;5055461;28;20042;-48
2021/12/29 01:19:04;;;;;;;15.93;4.40;;;;;;;8.19;100.00;100046.25;5073253;28;20044;-47
2021/12/29 01:21:31;;;;;;;16.60;4.55;;;;;;;8.47;100.00;100081.09;5054979;28;20035;-48
2021/12/29 01:23:57;;;;;;;18.35;4.68;;;;;;;8.51;100.00;100105.44;5055478;28;20111;-47
2021/12/29 01:26:22;;;;;;;11.98;3.97;;;;;;;8.42;100.00;100097.91;5072598;28;20166;-51
2021/12/29 01:28:48;;;;;;;13.82;3.83;;;;;;;8.47;100.00;100119.56;5054789;28;20403;-48
2021/12/29 01:31:13;;;;;;;15.65;4.00;;;;;;;8.16;100.00;100067.31;5072514;28;20062;-49
2021/12/29 01:33:38;;;;;;;13.25;3.90;;;;;;;8.14;100.00;100052.56;5072813;28;20028;-50
2021/12/29 01:36:04;;;;;;;13.68;4.53;;;;;;;8.52;100.00;100125.53;5054849;28;20047;-47
2021/12/29 01:38:29;;;;;;;15.65;4.10;;;;;;;8.56;100.00;100127.13;5072795;28;20028;-48
2021/12/29 01:40:55;;;;;;;13.20;3.90;;;;;;;8.34;100.00;100098.19;5054470;28;20028;-51
2021/12/29 01:43:20;;;;;;;17.85;3.97;;;;;;;8.51;100.00;100128.19;5054633;28;20123;-47
2021/12/29 01:45:46;;;;;;;16.90;3.50;;;;;;;8.51;100.00;100144.78;5072850;28;20442;-49
2021/12/29 01:48:12;;;;;;;13.75;3.38;;;;;;;8.14;100.00;100084.03;5054779;28;20024;-50
2021/12/29 01:50:39;;;;;;;13.68;3.42;;;;;;;8.46;100.00;100151.97;5072617;28;20028;-51
2021/12/29 01:53:09;;;;;;;16.75;3.30;;;;;;;8.53;100.00;100161.31;5021925;28;20357;-49
2021/12/29 01:55:36;;;;;;;14.30;3.03;;;;;;;8.13;100.00;100092.78;5072486;28;20468;-51
2021/12/29 01:58:01;;;;;;;18.33;3.70;;;;;;;8.15;100.00;100093.56;5072643;28;20547;-52
2021/12/29 02:00:30;;;;;;;15.70;3.88;;;;;;;8.15;100.00;100089.19;5072369;28;20123;-50
2021/12/29 02:02:56;;;;;;;18.30;4.32;;;;;;;8.51;100.00;100162.28;5054053;28;20093;-50
2021/12/29 02:05:22;;;;;;;16.58;4.57;;;;;;;8.33;100.00;100127.06;5038122;28;20033;-53
2021/12/29 02:07:47;;;;;;;21.40;5.65;;;;;;;8.46;100.00;100165.09;5054635;28;20476;-49
2021/12/29 02:10:14;;;;;;;25.70;6.82;;;;;;;8.48;100.00;100173.75;5072291;28;20029;-51
2021/12/29 02:12:40;;;;;;;24.67;5.82;;;;;;;8.43;100.00;100180.94;5054485;28;20037;-50
2021/12/29 02:15:07;;;;;;;23.63;6.40;;;;;;;8.49;100.00;100180.72;5054727;28;20085;-49
2021/12/29 02:17:32;;;;;;;28.08;6.43;;;;;;;8.49;100.00;100172.84;5072396;28;20081;-50
2021/12/29 02:20:05;;;;;;;22.80;6.57;;;;;;;8.35;100.00;100152.31;5072770;28;20028;-48
2021/12/29 02:22:42;;;;;;;25.75;7.00;;;;;;;8.46;100.00;100175.59;5072166;28;20040;-47
2021/12/29 02:27:44;;;;;;;24.77;6.97;;;;;;;8.46;100.00;100191.31;5072320;28;20368;-48
2021/12/29 02:30:10;;;;;;;23.33;7.43;;;;;;;8.47;100.00;100177.28;5072227;28;20025;-52
2021/12/29 02:32:36;;;;;;;27.13;7.80;;;;;;;8.09;100.00;100120.84;5054210;28;20488;-50
2021/12/29 02:35:01;;;;;;;33.78;8.98;;;;;;;8.47;100.00;100179.91;5072150;28;20113;-49
2021/12/29 02:37:27;;;;;;;29.80;9.23;;;;;;;8.44;100.00;100180.88;5071983;28;20472;-52
2021/12/29 02:39:53;;;;;;;32.67;11.07;;;;;;;8.48;100.00;100187.72;5057431;28;20035;-47
2021/12/29 02:42:26;;;;;;;37.90;10.23;;;;;;;8.41;100.00;100185.34;5058155;28;20451;-48
2021/12/29 02:44:52;;;;;;;29.63;10.45;;;;;;;8.12;100.00;100138.25;5076132;28;20104;-50
2021/12/29 02:47:18;;;;;;;33.85;11.75;;;;;;;8.17;100.00;100155.53;5076474;28;20543;-49
2021/12/29 02:49:45;;;;;;;36.08;10.95;;;;;;;8.31;100.00;100187.44;5075942;28;20112;-53
2021/12/29 02:52:11;;;;;;;33.95;11.25;;;;;;;8.46;100.00;100215.75;5076078;28;20033;-53
2021/12/29 02:54:37;;;;;;;43.90;11.85;;;;;;;8.38;100.00;100204.66;5076041;28;20391;-48
2021/12/29 02:57:02;;;;;;;34.40;10.13;;;;;;;8.47;100.00;100216.63;5075930;28;20036;-48
2021/12/29 02:59:28;;;;;;;27.85;9.55;;;;;;;8.48;100.00;100221.81;5075715;28;20040;-49
2021/12/29 03:01:53;;;;;;;25.05;9.65;;;;;;;8.51;100.00;100238.34;5057452;28;20131;-52
2021/12/29 03:04:19;;;;;;;29.70;8.88;;;;;;;8.14;100.00;100178.38;5075935;28;20033;-49
2021/12/29 03:06:45;;;;;;;37.35;9.30;;;;;;;8.49;100.00;100243.66;5041077;28;20032;-48
2021/12/29 03:09:12;;;;;;;31.20;9.55;;;;;;;8.46;100.00;100256.88;5075635;28;20056;-50
2021/12/29 03:11:40;;;;;;;24.50;9.55;;;;;;;8.47;100.00;100248.94;5075584;28;20507;-50
2021/12/29 03:14:06;;;;;;;39.08;11.93;;;;;;;8.09;100.00;100196.00;5075739;28;20268;-50
2021/12/29 03:16:33;;;;;;;43.40;12.45;;;;;;;8.09;100.00;100194.25;5075625;28;20029;-50
2021/12/29 03:18:59;;;;;;;37.05;13.02;;;;;;;8.43;100.00;100260.44;5057775;28;20021;-50
2021/12/29 03:21:24;;;;;;;53.50;14.43;;;;;;;8.06;100.00;100209.22;5075124;28;20028;-51
2021/12/29 03:23:49;;;;;;;40.60;12.98;;;;;;;8.10;100.00;100218.69;5057668;28;20490;-49
2021/12/29 03:26:16;;;;;;;37.33;13.18;;;;;;;8.06;100.00;100222.31;5075420;28;20036;-49
2021/12/29 03:28:43;;;;;;;36.25;11.73;;;;;;;8.02;100.00;100211.09;5040673;28;20605;-48
2021/12/29 03:31:11;;;;;;;34.17;10.40;;;;;;;8.12;100.00;100230.84;5074933;28;20033;-46
2021/12/29 03:33:37;;;;;;;36.88;9.38;;;;;;;8.41;100.00;100295.50;5057108;28;20510;-53
2021/12/29 03:36:03;;;;;;;24.92;9.07;;;;;;;8.39;100.00;100295.56;5075263;28;20028;-48
2021/12/29 03:38:32;;;;;;;44.80;10.02;;;;;;;8.02;100.00;100247.78;5075033;28;20036;-52
2021/12/29 03:40:58;;;;;;;32.50;8.70;;;;;;;8.33;100.00;100295.75;5057157;28;20032;-51
2021/12/29 03:43:26;;;;;;;34.72;9.45;;;;;;;8.36;100.00;100311.38;5075132;28;20037;-52
2021/12/29 03:45:52;;;;;;;27.05;7.95;;;;;;;7.99;100.00;100261.00;5075052;28;20051;-51
2021/12/29 03:48:19;;;;;;;34.50;8.07;;;;;;;8.00;100.00;100249.56;5074765;28;20036;-50
2021/12/29 03:50:46;;;;;;;32.00;8.27;;;;;;;8.28;100.00;100304.66;5073928;28;20480;-50
2021/12/29 03:53:14;;;;;;;22.50;6.78;;;;;;;8.30;100.00;100308.97;5040340;28;20029;-53
2021/12/29 03:55:43;;;;;;;31.95;7.35;;;;;;;8.28;100.00;100308.16;5074931;28;20067;-50
2021/12/29 03:58:08;;;;;;;24.80;6.55;;;;;;;8.23;100.00;100299.53;5057149;28;20044;-54
2021/12/29 04:00:35;;;;;;;32.97;7.03;;;;;;;8.31;100.00;100331.66;5056552;28;20480;-49
2021/12/29 04:03:00;;;;;;;31.17;7.03;;;;;;;8.30;100.00;100316.81;5056463;28;20059;-50
2021/12/29 04:05:25;;;;;;;25.17;6.72;;;;;;;8.28;100.00;100329.13;5074528;28;20040;-49
2021/12/29 04:07:56;;;;;;;21.55;5.65;;;;;;;8.29;100.00;100317.72;5056629;28;20043;-48
2021/12/29 04:10:21;;;;;;;30.40;6.72;;;;;;;8.10;100.00;100287.72;5057143;28;20059;-49
2021/12/29 04:12:47;;;;;;;32.28;6.60;;;;;;;7.98;100.00;100266.25;5056370;28;20391;-47
2021/12/29 04:15:14;;;;;;;31.55;6.90;;;;;;;8.11;100.00;100293.81;5074456;28;20025;-49
2021/12/29 04:17:40;;;;;;;37.20;7.45;;;;;;;8.23;100.00;100306.56;5074123;28;20046;-48
2021/12/29 04:22:52;;;;;;;25.60;8.25;;;;;;;8.21;100.00;100319.69;5074515;28;20090;-50
2021/12/29 04:25:24;;;;;;;24.77;7.25;;;;;;;7.95;100.00;100293.41;5056356;28;20037;-50
2021/12/29 04:27:54;;;;;;;25.33;7.22;;;;;;;8.25;100.00;100344.06;5055881;28;20041;-51
2021/12/29 04:30:20;;;;;;;22.83;7.22;;;;;;;7.98;100.00;100301.19;5056520;28;20085;-51
2021/12/29 04:32:46;;;;;;;32.78;7.47;;;;;;;7.79;100.00;100266.81;5039635;28;20035;-50
2021/12/29 04:35:11;;;;;;;32.90;8.13;;;;;;;8.12;100.00;100333.09;5056027;28;20028;-49
2021/12/29 04:37:37;;;;;;;25.27;8.23;;;;;;;8.20;100.00;100357.28;5074019;28;20035;-51
2021/12/29 04:40:04;;;;;;;35.65;9.85;;;;;;;8.13;100.00;100345.28;5056175;28;20036;-49
2021/12/29 04:42:29;;;;;;;32.70;9.63;;;;;;;8.16;100.00;100366.19;5073710;28;20028;-50
2021/12/29 04:44:55;;;;;;;23.90;8.90;;;;;;;8.19;100.00;100367.84;5073935;28;20035;-50
2021/12/29 04:47:27;;;;;;;30.83;9.55;;;;;;;8.18;100.00;100381.84;5073368;28;20036;-49
2021/12/29 04:49:52;;;;;;;33.08;9.35;;;;;;;7.84;100.00;100313.84;5073524;28;20033;-48
2021/12/29 04:52:18;;;;;;;29.30;8.57;;;;;;;8.17;100.00;100369.66;5073805;28;20499;-51
2021/12/29 04:54:43;;;;;;;30.33;8.93;;;;;;;7.81;100.00;100321.81;5073568;28;20032;-48
2021/12/29 04:57:09;;;;;;;28.50;9.38;;;;;;;7.76;100.00;100316.69;5073350;28;20035;-48
2021/12/29 04:59:34;;;;;;;23.85;8.52;;;;;;;7.72;100.00;100327.31;5055686;28;20536;-50
2021/12/29 05:02:00;;;;;;;24.80;9.15;;;;;;;7.74;100.00;100325.50;5072431;28;20124;-50
2021/12/29 05:04:33;;;;;;;25.52;8.85;;;;;;;7.75;100.00;100325.47;5073032;28;20032;-48
2021/12/29 05:09:44;;;;;;;24.85;9.35;;;;;;;7.90;100.00;100347.75;5058132;28;20569;-48
2021/12/29 05:12:10;;;;;;;28.25;10.25;;;;;;;7.74;100.00;100339.47;5055655;28;20123;-51
2021/12/29 05:14:35;;;;;;;28.08;10.95;;;;;;;7.99;100.00;100360.59;5073146;28;20072;-52
2021/12/29 05:17:01;;;;;;;28.73;10.00;;;;;;;8.10;100.00;100383.84;5055458;28;20033;-47
2021/12/29 05:19:26;;;;;;;26.38;10.18;;;;;;;7.64;100.00;100314.44;5073009;28;20413;-52
2021/12/29 05:21:52;;;;;;;34.00;10.75;;;;;;;7.71;100.00;100317.72;5073034;28;20066;-53
2021/12/29 05:24:17;;;;;;;28.98;10.43;;;;;;;8.04;100.00;100378.78;5072844;28;20036;-50
2021/12/29 05:26:43;;;;;;;22.60;10.63;;;;;;;7.97;100.00;100364.16;5072941;28;20483;-48
2021/12/29 05:29:08;;;;;;;26.42;10.70;;;;;;;8.06;100.00;100382.19;5073043;28;20028;-48
2021/12/29 05:31:33;;;;;;;24.83;10.68;;;;;;;7.44;100.00;100271.38;5072781;28;20040;-48
2021/12/29 05:33:59;;;;;;;28.63;10.27;;;;;;;8.04;100.00;100379.63;5072769;28;20033;-50
2021/12/29 05:36:24;;;;;;;25.10;10.38;;;;;;;7.70;100.00;100326.50;5054657;28;20028;-48
2021/12/29 05:38:52;;;;;;;22.77;9.80;;;;;;;8.07;100.00;100395.28;5072569;28;20098;-48
2021/12/29 05:41:17;;;;;;;27.17;10.45;;;;;;;7.71;100.00;100325.56;5072974;28;20028;-49
2021/12/29 05:43:43;;;;;;;33.20;11.63;;;;;;;8.03;100.00;100384.91;5072622;28;20441;-48
2021/12/29 05:46:09;;;;;;;25.23;10.75;;;;;;;8.05;100.00;100396.22;5072157;28;20493;-50
2021/12/29 05:48:35;;;;;;;22.27;10.98;;;;;;;8.03;100.00;100395.41;5072399;28;20036;-50
2021/12/29 05:51:00;;;;;;;28.02;12.57;;;;;;;8.03;100.00;100396.25;5054438;28;20028;-51
2021/12/29 05:53:26;;;;;;;25.85;11.27;;;;;;;7.95;100.00;100379.91;5072419;28;20410;-50
2021/12/29 05:55:51;;;;;;;29.27;11.98;;;;;;;8.03;100.00;100401.50;5072472;28;20521;-50
2021/12/29 05:58:17;;;;;;;27.75;12.38;;;;;;;7.68;100.00;100344.00;5054589;28;20029;-54
2021/12/29 06:00:43;;;;;;;26.73;12.00;;;;;;;7.65;100.00;100347.56;5072115;28;20036;-53
2021/12/29 06:03:09;;;;;;;18.70;10.63;;;;;;;7.71;100.00;100346.53;5072729;28;20053;-51
2021/12/29 06:05:35;;;;;;;28.25;9.70;;;;;;;8.05;100.00;100404.09;5054270;28;20029;-49
2021/12/29 06:08:00;;;;;;;19.77;9.35;;;;;;;7.73;100.00;100355.22;5072151;28;20032;-51
2021/12/29 06:10:25;;;;;;;26.73;10.05;;;;;;;8.01;100.00;100410.31;5072270;28;20024;-48
2021/12/29 06:12:51;;;;;;;21.55;9.93;;;;;;;7.83;100.00;100386.34;5054241;28;20111;-49
2021/12/29 06:15:16;;;;;;;16.63;9.38;;;;;;;8.01;100.00;100410.31;5072493;28;20090;-48
2021/12/29 06:17:42;;;;;;;27.98;10.10;;;;;;;7.94;100.00;100414.88;5037908;28;20046;-49
2021/12/29 06:20:09;;;;;;;27.45;10.52;;;;;;;7.66;100.00;100351.91;5054390;28;20086;-46
2021/12/29 06:22:35;;;;;;;23.23;9.65;;;;;;;7.99;100.00;100417.38;5072072;28;20032;-53
2021/12/29 06:25:00;;;;;;;26.52;9.63;;;;;;;7.97;100.00;100412.16;5072311;28;20420;-48
2021/12/29 06:27:25;;;;;;;25.00;9.35;;;;;;;7.96;100.00;100407.84;5072231;28;20415;-50
2021/12/29 06:29:51;;;;;;;23.00;9.32;;;;;;;7.64;100.00;100361.59;5072034;28;20097;-48
2021/12/29 06:32:17;;;;;;;23.13;10.05;;;;;;;7.98;100.00;100424.38;5071749;28;20039;-49
2021/12/29 06:34:42;;;;;;;16.80;8.90;;;;;;;7.29;100.00;100306.72;5072174;28;20123;-48
2021/12/29 06:37:09;;;;;;;21.02;9.00;;;;;;;7.61;100.00;100352.94;5072061;28;20444;-50
2021/12/29 06:39:36;;;;;;;14.80;8.10;;;;;;;8.01;100.00;100426.03;5071984;28;20430;-51
2021/12/29 06:42:02;;;;;;;21.33;9.00;;;;;;;7.99;100.00;100415.63;5037722;28;20052;-54
2021/12/29 06:44:27;;;;;;;16.70;8.07;;;;;;;7.62;100.00;100366.00;5071698;28;20123;-49
2021/12/29 06:46:53;;;;;;;17.60;8.45;;;;;;;7.90;100.00;100414.13;5071935;28;20108;-50
2021/12/29 06:49:18;;;;;;;17.90;7.30;;;;;;;7.60;100.00;100356.47;5054080;28;20039;-49
2021/12/29 06:51:43;;;;;;;13.63;7.00;;;;;;;8.01;100.00;100452.25;5071931;28;20036;-49
2021/12/29 06:54:09;;;;;;;13.68;6.47;;;;;;;7.99;100.00;100454.06;5037183;28;20028;-46
2021/12/29 06:56:34;;;;;;;19.75;7.25;;;;;;;7.91;100.00;100428.06;5072117;28;20040;-47
2021/12/29 06:58:59;;;;;;;13.38;6.97;;;;;;;7.60;100.00;100386.13;5072077;28;20472;-48
2021/12/29 07:01:25;;;;;;;12.13;6.32;;;;;;;7.60;100.00;100387.91;5070793;28;20049;-51
2021/12/29 07:03:50;;;;;;;12.35;6.45;;;;;;;7.98;100.00;100447.97;5052709;28;20040;-51
2021/12/29 07:06:15;;;;;;;15.10;6.18;;;;;;;7.98;100.00;100470.69;5072043;28;20042;-48
2021/12/29 07:08:41;;;;;;;12.90;6.70;;;;;;;7.95;100.00;100463.78;5070851;28;20040;-51
2021/12/29 07:11:06;;;;;;;13.20;6.68;;;;;;;7.91;100.00;100467.38;5072080;28;20460;-48
2021/12/29 07:13:31;;;;;;;21.20;8.35;;;;;;;7.92;100.00;100467.34;5071642;28;20040;-48
2021/12/29 07:15:57;;;;;;;16.08;7.72;;;;;;;7.81;100.00;100452.81;5071660;28;20041;-47
2021/12/29 07:18:22;;;;;;;14.00;8.30;;;;;;;7.53;100.00;100409.94;5071812;28;20471;-49
2021/12/29 07:20:47;;;;;;;14.43;8.35;;;;;;;7.92;100.00;100477.81;5053706;28;20036;-49
2021/12/29 07:23:13;;;;;;;13.98;8.30;;;;;;;7.93;100.00;100478.69;5071453;28;20028;-50
2021/12/29 07:25:38;;;;;;;18.95;10.02;;;;;;;7.97;100.00;100482.91;5074033;28;20032;-48
2021/12/29 07:28:04;;;;;;;22.17;9.63;;;;;;;7.99;100.00;100485.53;5074962;28;20032;-51
2021/12/29 07:30:29;;;;;;;22.13;10.32;;;;;;;7.69;100.00;100433.03;5075149;28;20093;-48
2021/12/29 07:32:55;;;;;;;22.95;10.05;;;;;;;7.68;100.00;100418.22;5075058;28;20044;-48
2021/12/29 07:35:20;;;;;;;23.67;10.40;;;;;;;8.02;100.00;100465.34;5075072;28;20036;-46
2021/12/29 07:37:45;;;;;;;19.98;10.77;;;;;;;8.05;100.00;100475.72;5057323;28;20391;-48
2021/12/29 07:40:11;;;;;;;28.55;11.15;;;;;;;8.06;100.00;100479.19;5057161;28;20466;-47
2021/12/29 07:42:38;;;;;;;18.15;10.85;;;;;;;7.64;100.00;100411.38;5075170;28;20029;-49
2021/12/29 07:45:07;;;;;;;23.00;11.57;;;;;;;8.04;100.00;100479.25;5051568;28;20024;-51
2021/12/29 07:47:39;;;;;;;20.60;12.65;;;;;;;8.06;100.00;100460.84;5054152;28;20043;-46
2021/12/29 07:50:05;;;;;;;23.20;13.55;;;;;;;8.03;100.00;100467.03;5056610;28;20471;-46
2021/12/29 07:52:30;;;;;;;17.05;12.75;;;;;;;7.77;100.00;100428.44;5073214;28;20059;-50
2021/12/29 07:54:56;;;;;;;25.50;12.90;;;;;;;8.06;100.00;100468.69;5057182;28;20032;-49
2021/12/29 07:57:21;;;;;;;24.60;13.10;;;;;;;7.72;100.00;100403.28;5074666;28;20387;-48
2021/12/29 07:59:47;;;;;;;27.02;12.77;;;;;;;8.07;100.00;100466.06;5074277;28;20468;-52
2021/12/29 08:02:17;;;;;;;22.33;12.60;;;;;;;8.00;100.00;100450.56;5074603;28;20057;-50
2021/12/29 08:04:43;;;;;;;22.75;12.70;;;;;;;7.72;100.00;100408.53;5056302;28;20071;-48
2021/12/29 08:07:08;;;;;;;24.30;12.10;;;;;;;7.72;100.00;100416.38;5056679;28;20068;-48
2021/12/29 08:09:34;;;;;;;19.85;13.15;;;;;;;8.05;100.00;100467.00;5074199;28;20071;-48
2021/12/29 08:11:59;;;;;;;21.63;12.93;;;;;;;8.01;100.00;100467.97;5074416;28;20083;-48
2021/12/29 08:14:24;;;;;;;23.05;14.27;;;;;;;7.67;100.00;100413.91;5056316;28;20035;-49
2021/12/29 08:16:50;;;;;;;25.73;13.75;;;;;;;8.05;100.00;100478.34;5074357;28;20029;-49
2021/12/29 08:19:16;;;;;;;23.38;13.90;;;;;;;8.04;100.00;100478.38;5039670;28;20036;-48
2021/12/29 08:21:41;;;;;;;28.55;13.63;;;;;;;8.01;100.00;100473.22;5074380;28;20032;-49
2021/12/29 08:24:07;;;;;;;20.80;14.18;;;;;;;7.68;100.00;100422.59;5074314;28;20038;-52
2021/12/29 08:26:32;;;;;;;29.25;14.73;;;;;;;7.67;100.00;100407.78;5039418;28;20188;-47
2021/12/29 08:28:58;;;;;;;20.77;13.48;;;;;;;8.01;100.00;100473.22;5055719;28;20044;-47
2021/12/29 08:31:25;;;;;;;27.85;14.15;;;;;;;7.95;100.00;100469.00;5056048;28;20032;-48
2021/12/29 08:33:50;;;;;;;24.10;14.07;;;;;;;8.04;100.00;100473.13;5023068;28;20040;-52
2021/12/29 08:36:16;;;;;;;31.60;14.70;;;;;;;8.06;100.00;100487.91;5072867;28;20040;-48
2021/12/29 08:38:43;;;;;;;24.08;14.10;;;;;;;8.08;100.00;100495.75;5073892;28;20047;-47
2021/12/29 08:41:11;;;;;;;18.27;12.43;;;;;;;8.08;100.00;100494.00;5073914;28;20403;-48
2021/12/29 08:43:36;;;;;;;25.38;13.10;;;;;;;7.79;100.00;100431.03;5073724;28;20036;-50
2021/12/29 08:46:01;;;;;;;20.00;12.80;;;;;;;8.04;100.00;100481.88;5073752;28;20032;-47
2021/12/29 08:48:27;;;;;;;23.50;12.52;;;;;;;8.06;100.00;100493.16;5073602;28;20040;-45
2021/12/29 08:50:54;;;;;;;21.77;12.52;;;;;;;8.06;100.00;100487.91;5056129;28;20032;-46
2021/12/29 08:53:19;;;;;;;28.60;15.10;;;;;;;8.03;100.00;100485.38;5073576;28;20032;-49
2021/12/29 08:55:49;;;;;;;30.70;13.80;;;;;;;7.72;100.00;100435.59;5073459;28;20033;-51
2021/12/29 08:58:16;;;;;;;28.00;13.38;;;;;;;7.83;100.00;100458.84;5073511;28;20029;-46
2021/12/29 09:00:42;;;;;;;27.90;12.77;;;;;;;7.90;100.00;100468.28;5073416;28;20039;-47
2021/12/29 09:03:08;;;;;;;29.30;12.45;;;;;;;7.77;100.00;100454.66;5073178;28;20053;-51
2021/12/29 09:05:34;;;;;;;16.95;13.35;;;;;;;7.46;100.00;100395.28;5055727;28;20040;-55
2021/12/29 09:07:59;;;;;;;21.90;13.43;;;;;;;7.80;100.00;100472.91;5055349;28;20043;-52
2021/12/29 09:10:25;;;;;;;24.08;12.35;;;;;;;7.44;100.00;100412.78;5055335;28;20032;-53
2021/12/29 09:12:51;;;;;;;34.60;13.55;;;;;;;7.53;100.00;100431.72;5073230;28;20029;-50
2021/12/29 09:15:19;;;;;;;21.42;12.07;;;;;;;7.47;100.00;100410.09;5073528;28;20052;-50
2021/12/29 09:17:44;;;;;;;20.55;13.07;;;;;;;7.71;100.00;100440.84;5072409;28;20396;-49
2021/12/29 09:20:23;;;;;;;25.02;12.48;;;;;;;7.85;100.00;100447.44;5073062;28;20040;-52
2021/12/29 09:22:49;;;;;;;23.38;11.95;;;;;;;7.64;100.00;100392.16;5073294;28;20543;-52
2021/12/29 09:25:14;;;;;;;23.02;13.27;;;;;;;7.92;100.00;100427.16;5073043;28;20060;-48
2021/12/29 09:27:39;;;;;;;19.33;13.50;;;;;;;8.17;100.00;100450.94;5072466;28;20120;-52
2021/12/29 09:30:05;;;;;;;26.20;13.40;;;;;;;8.23;100.00;100471.72;5072515;28;20131;-50
2021/12/29 09:32:31;;;;;;;21.85;13.02;;;;;;;8.25;100.00;100462.06;5055085;28;20044;-52
2021/12/29 09:34:59;;;;;;;24.25;13.07;;;;;;;7.88;100.00;100404.59;5072878;28;20039;-52
2021/12/29 09:37:26;;;;;;;30.83;16.10;;;;;;;8.32;100.00;100479.34;5072729;28;20040;-51
2021/12/29 09:39:51;;;;;;;20.65;14.35;;;;;;;8.28;100.00;100468.09;5072489;28;20038;-50
2021/12/29 09:42:17;;;;;;;26.90;15.68;;;;;;;7.92;100.00;100414.94;5054538;28;20119;-48
2021/12/29 09:44:42;;;;;;;22.10;15.00;;;;;;;8.27;100.00;100468.09;5054917;28;20097;-45
2021/12/29 09:47:08;;;;;;;28.13;12.48;;;;;;;7.97;100.00;100409.53;5072351;28;20039;-44
2021/12/29 09:49:34;;;;;;;18.27;11.57;;;;;;;8.26;100.00;100453.28;5037879;28;20045;-46
2021/12/29 09:52:00;;;;;;;19.63;10.77;;;;;;;7.75;100.00;100369.13;5072396;28;20032;-45
2021/12/29 09:54:25;;;;;;;20.10;10.63;;;;;;;8.28;100.00;100459.38;5072523;28;20399;-47
2021/12/29 09:56:51;;;;;;;16.63;10.38;;;;;;;8.26;100.00;100448.88;5072291;28;20426;-45
2021/12/29 09:59:18;;;;;;;13.13;9.90;;;;;;;7.94;100.00;100383.41;5072288;28;20031;-45
2021/12/29 10:01:43;;;;;;;14.27;10.07;;;;;;;8.26;100.00;100438.41;5072399;28;20028;-44
2021/12/29 10:04:09;;;;;;;14.18;9.77;;;;;;;8.29;100.00;100437.50;5054554;28;20391;-45
2021/12/29 10:06:34;;;;;;;16.58;9.80;;;;;;;8.06;100.00;100383.06;5072404;28;20455;-44
2021/12/29 10:09:18;;;;;;;16.67;10.02;;;;;;;8.27;100.00;100416.56;5072279;28;20028;-44
2021/12/29 10:11:45;;;;;;;15.10;8.52;;;;;;;8.34;100.00;100418.09;5072228;28;20434;-46
2021/12/29 10:14:12;;;;;;;15.52;9.30;;;;;;;8.41;100.00;100427.50;5072607;28;20032;-44
2021/12/29 10:16:39;;;;;;;13.40;9.18;;;;;;;8.09;100.00;100359.38;5072471;28;20468;-45
2021/12/29 10:19:13;;;;;;;12.27;9.43;;;;;;;8.09;100.00;100353.28;5054365;28;20029;-45
2021/12/29 10:21:46;;;;;;;13.50;9.02;;;;;;;8.18;100.00;100363.50;5072304;28;20039;-45
2021/12/29 10:24:12;;;;;;;16.13;9.40;;;;;;;8.50;100.00;100408.00;5072042;28;20073;-47
2021/12/29 10:26:40;;;;;;;15.02;9.55;;;;;;;8.60;100.00;100408.56;5054582;28;20097;-45
2021/12/29 10:29:08;;;;;;;14.27;10.02;;;;;;;8.57;100.00;100403.41;5054241;28;20028;-44
2021/12/29 10:31:50;;;;;;;15.60;9.73;;;;;;;8.35;100.00;100364.72;5072242;28;20040;-44
2021/12/29 10:34:19;;;;;;;13.88;8.68;;;;;;;8.55;100.00;100397.38;5072033;28;20036;-45
2021/12/29 10:37:00;;;;;;;14.82;8.20;;;;;;;8.28;100.00;100352.72;5071980;28;20028;-45
2021/12/29 10:39:29;;;;;;;14.00;8.07;;;;;;;8.58;100.00;100399.91;5072226;28;20029;-46
2021/12/29 10:41:55;;;;;;;15.07;8.10;;;;;;;8.67;100.00;100425.84;5071912;28;20040;-45
2021/12/29 10:44:43;;;;;;;14.38;8.70;;;;;;;8.68;100.00;100435.44;5072150;28;20028;-45
2021/12/29 10:47:15;;;;;;;13.93;8.85;;;;;;;8.30;100.00;100377.13;5058996;28;20492;-45
2021/12/29 10:49:50;;;;;;;12.68;8.93;;;;;;;8.67;100.00;100442.44;5072022;28;20343;-45
2021/12/29 10:52:16;;;;;;;16.05;8.95;;;;;;;8.41;100.00;100403.88;5071802;28;20074;-44
2021/12/29 10:54:41;;;;;;;15.30;8.73;;;;;;;8.28;100.00;100373.72;5071912;28;20040;-46
2021/12/29 10:57:12;;;;;;;17.75;9.25;;;;;;;8.62;100.00;100440.84;5053837;28;20033;-45
2021/12/29 10:59:41;;;;;;;14.38;9.82;;;;;;;8.54;100.00;100432.38;5054123;28;20024;-45
2021/12/29 11:02:07;;;;;;;17.02;10.25;;;;;;;8.16;100.00;100366.19;5075852;28;20053;-47
2021/12/29 11:04:33;;;;;;;13.63;9.50;;;;;;;8.47;100.00;100411.56;5057657;28;20024;-47
2021/12/29 11:07:01;;;;;;;14.30;10.25;;;;;;;8.39;100.00;100374.22;5057190;28;20055;-46
2021/12/29 11:09:33;;;;;;;20.15;11.32;;;;;;;8.16;100.00;100326.84;5074679;28;20130;-45
2021/12/29 11:12:01;;;;;;;17.88;10.80;;;;;;;8.15;100.00;100317.25;5074868;28;20070;-46
2021/12/29 11:14:33;;;;;;;16.70;11.18;;;;;;;8.48;100.00;100378.34;5075378;28;20036;-44
2021/12/29 11:17:10;;;;;;;21.55;11.50;;;;;;;8.51;100.00;100391.34;5075381;28;20039;-45
2021/12/29 11:19:36;;;;;;;20.35;12.70;;;;;;;8.41;100.00;100364.53;5075015;28;20038;-45
2021/12/29 11:22:16;;;;;;;19.13;11.52;;;;;;;8.63;100.00;100392.75;5075369;28;20033;-46